ADDS METAR Data INFO
IDs: Format: Raw Decoded Include TAF

Data at: 2316 UTC 15 Jul 2018

KLKU 152255Z AUTO 00000KT 10SM SCT055 SCT075 28/25 A3003 RMK AO2 LTG DSNT N T02820251
KLKU 152235Z AUTO 00000KT 10SM VCTS BKN055 BKN065 28/25 A3004 RMK AO2 LTG DSNT N T02830254
KLKU 152215Z AUTO 00000KT 10SM CLR 28/25 A3003 RMK AO2 LTG DSNT N AND NW T02790246
KLKU 152155Z AUTO 00000KT 10SM CLR 29/24 A3003 RMK AO2 LTG DSNT N T02910242
KLKU 152135Z AUTO 16003KT 10SM CLR 30/23 A3003 RMK AO2 T03040231
KLKU 152115Z AUTO 00000KT 10SM CLR 30/24 A3003 RMK AO2 T03020237
KLKU 152055Z AUTO 16003KT 10SM CLR 31/22 A3004 RMK AO2 LTG DSNT N T03070225
KLKU 152035Z AUTO 00000KT 10SM CLR 31/23 A3004 RMK AO2 T03060228
KLKU 152015Z AUTO 00000KT 10SM CLR 30/23 A3005 RMK AO2 LTG DSNT W T03030230
KLKU 151955Z AUTO 00000KT 10SM CLR 30/23 A3005 RMK AO2 LTG DSNT N T03050225
KLKU 151935Z AUTO 00000KT 10SM CLR 30/22 A3006 RMK AO2 T03040220
KLKU 151915Z AUTO 17003KT 10SM CLR 31/22 A3006 RMK AO2 T03080216
KLKU 151855Z AUTO 21003KT 10SM CLR 31/22 A3007 RMK AO2 LTG DSNT NW T03080220
KLKU 151835Z AUTO 22003KT 10SM SCT100 31/22 A3007 RMK AO2 T03090217
KLKU 151815Z AUTO 18003KT 10SM BKN100 31/22 A3007 RMK AO2 T03120215
KLKU 151755Z AUTO 17003KT 10SM SCT100 30/21 A3007 RMK AO2 T03050215 10312 20207
KLKU 151735Z AUTO 00000KT 10SM CLR 31/21 A3007 RMK AO2 T03090212
KLKU 151715Z AUTO 17004KT 10SM CLR 31/21 A3007 RMK AO2 T03060211
KLKU 151655Z AUTO 25004KT 10SM CLR 30/21 A3008 RMK AO2 T02980215
KLKU 151635Z AUTO 21004KT 10SM CLR 30/21 A3008 RMK AO2 T02970210
KLKU 151615Z AUTO 20004KT 10SM CLR 29/21 A3008 RMK AO2 T02940209
KLKU 151555Z AUTO 19005KT 10SM CLR 29/20 A3008 RMK AO2 T02920205
KLKU 151535Z AUTO 19003KT 10SM CLR 29/20 A3008 RMK AO2 T02910203
KLKU 151515Z AUTO 22005KT 10SM CLR 28/20 A3008 RMK AO2 T02830202
KLKU 151455Z AUTO 25004KT 10SM CLR 28/20 A3008 RMK AO2 T02760197
KLKU 151435Z AUTO 23005KT 10SM CLR 27/19 A3008 RMK AO2 T02750195
KLKU 151415Z AUTO 24005KT 10SM CLR 26/19 A3009 RMK AO2 T02610186
KLKU 151355Z AUTO 23005KT 10SM CLR 25/18 A3009 RMK AO2 T02490183
KLKU 151335Z AUTO 23005KT 10SM CLR 25/19 A3009 RMK AO2 T02480185
KLKU 151315Z AUTO 20004KT 10SM CLR 24/18 A3009 RMK AO2 T02370179
KLKU 151255Z AUTO 20004KT 10SM CLR 23/18 A3010 RMK AO2 T02280175
KLKU 151235Z AUTO 19003KT 10SM CLR 22/17 A3010 RMK AO2 T02160173
KLKU 151215Z AUTO 20005KT 10SM CLR 22/17 A3010 RMK AO2 T02160170
KLKU 151155Z AUTO 18005KT 10SM CLR 21/17 A3009 RMK AO2 T02050165 10206 20186
KLKU 151135Z AUTO 17006KT 10SM CLR 20/16 A3009 RMK AO2 T02000163
KLKU 151115Z AUTO 19003KT 10SM CLR 20/16 A3010 RMK AO2 T01960162
KLKU 151055Z AUTO 18004KT 10SM CLR 19/16 A3010 RMK AO2 T01950160
KLKU 151035Z AUTO 18004KT 10SM SCT080 19/16 A3011 RMK AO2 T01920158
KLKU 151015Z AUTO 17004KT 10SM BKN080 19/16 A3010 RMK AO2 T01890158
KLKU 150955Z AUTO 16004KT 10SM CLR 19/16 A3010 RMK AO2 T01870158
KLKU 150935Z AUTO 15004KT 10SM CLR 19/16 A3010 RMK AO2 T01920157
KLKU 150915Z AUTO 17004KT 10SM CLR 20/16 A3011 RMK AO2 T01960157
KLKU 150855Z AUTO 17005KT 10SM CLR 20/16 A3011 RMK AO2 T01960157
KLKU 150835Z AUTO 18003KT 10SM CLR 19/16 A3012 RMK AO2 T01930157
KLKU 150815Z AUTO 00000KT 10SM CLR 20/16 A3012 RMK AO2 T01990156
KLKU 150755Z AUTO 19003KT 10SM CLR 20/16 A3012 RMK AO2 T02020156
KLKU 150735Z AUTO 21004KT 10SM CLR 20/16 A3011 RMK AO2 T02030156
KLKU 150715Z AUTO 19005KT 10SM CLR 20/16 A3011 RMK AO2 T02050155
KLKU 150655Z AUTO 18004KT 10SM CLR 20/16 A3012 RMK AO2 T02040156
KLKU 150635Z AUTO 19004KT 10SM CLR 20/16 A3013 RMK AO2 T02040156
KLKU 150615Z AUTO 19004KT 10SM CLR 20/16 A3014 RMK AO2 T02010156
KLKU 150555Z AUTO 23004KT 10SM CLR 20/16 A3015 RMK AO2 T02030156 10252 20192
KLKU 150535Z AUTO 19003KT 10SM CLR 20/16 A3015 RMK AO2 T02010156
KLKU 150515Z AUTO 21003KT 10SM CLR 21/16 A3015 RMK AO2 T02120156
KLKU 150455Z AUTO 20004KT 10SM CLR 21/16 A3015 RMK AO2 T02140155
KLKU 150435Z AUTO 19003KT 10SM CLR 22/15 A3015 RMK AO2 T02150154
KLKU 150415Z AUTO 18004KT 10SM CLR 22/15 A3015 RMK AO2 T02180153
KLKU 150355Z AUTO 17003KT 10SM CLR 20/16 A3015 RMK AO2 T01960160
KLKU 150335Z AUTO 18003KT 10SM CLR 21/16 A3015 RMK AO2 T02130156
KLKU 150315Z AUTO 18003KT 10SM CLR 21/16 A3015 RMK AO2 T02060161
KLKU 150255Z AUTO 16003KT 10SM CLR 22/16 A3015 RMK AO2 T02220157
KLKU 150235Z AUTO 19004KT 10SM CLR 23/16 A3014 RMK AO2 T02260159
KLKU 150215Z AUTO 16004KT 10SM CLR 23/16 A3014 RMK AO2 T02270165
KLKU 150155Z AUTO 15004KT 10SM CLR 23/17 A3013 RMK AO2 T02330166
KLKU 150135Z AUTO 17004KT CLR 23/17 A3013 RMK AO2 T02300173
KLKU 150115Z AUTO 16004KT 10SM CLR 23/18 A3012 RMK AO2 T02340177
KLKU 150055Z AUTO 16004KT 10SM CLR 23/18 A3012 RMK AO2 T02320182
KLKU 150035Z AUTO 16004KT 10SM CLR 23/19 A3012 RMK AO2 T02290191
KLKU 150015Z AUTO 16003KT 10SM CLR 24/19 A3012 RMK AO2 T02410193
KLKU 142355Z AUTO 00000KT 10SM CLR 25/19 A3012 RMK AO2 T02520192 10304 20250 403040125
KLKU 142335Z AUTO 17003KT 10SM CLR 27/18 A3012 RMK AO2 T02700185
KLKU 142315Z AUTO 15003KT 10SM CLR 28/18 A3012 RMK AO2 T02810176
KLKU 142255Z AUTO 17004KT 10SM CLR 28/17 A3012 RMK AO2 T02850171
KLKU 142235Z AUTO 17003KT 10SM CLR 29/17 A3013 RMK AO2 T02890174
KLKU 142215Z AUTO 20006KT 10SM CLR 29/17 A3014 RMK AO2 T02930174
KLKU 142155Z AUTO 17005KT 10SM CLR 30/17 A3014 RMK AO2 T02950174
KLKU 142135Z AUTO 15005KT 10SM CLR 29/17 A3015 RMK AO2 T02950170
KLKU 142115Z AUTO 20006KT 10SM CLR 30/17 A3016 RMK AO2 T02960168
KLKU 142055Z AUTO 20005KT 10SM CLR 30/17 A3016 RMK AO2 T02990172
KLKU 142035Z AUTO 17006KT 10SM CLR 30/17 A3017 RMK AO2 T02980170
KLKU 142015Z AUTO 17004KT 10SM CLR 30/17 A3017 RMK AO2 T02970168
KLKU 141955Z AUTO 20006KT 10SM CLR 30/17 A3018 RMK AO2 T03000169
KLKU 141935Z AUTO 21005KT 10SM CLR 30/17 A3019 RMK AO2 T02950170
KLKU 141915Z AUTO 17006KT 10SM CLR 30/16 A3019 RMK AO2 T02960165
KLKU 141855Z AUTO 24008KT 10SM CLR 30/17 A3019 RMK AO2 T02950166
KLKU 141835Z AUTO 19007KT 10SM CLR 29/16 A3019 RMK AO2 T02920160
KLKU 141815Z AUTO 17007KT 10SM CLR 30/16 A3020 RMK AO2 T02970163
KLKU 141755Z AUTO 15005KT 10SM CLR 29/17 A3021 RMK AO2 T02890169 10292 20204
KLKU 141735Z AUTO 19004KT 10SM CLR 29/16 A3021 RMK AO2 T02900164
KLKU 141715Z AUTO 18006KT 10SM CLR 28/16 A3021 RMK AO2 T02840161
KLKU 141655Z AUTO 16007KT 140V210 10SM CLR 29/17 A3022 RMK AO2 T02860166
KLKU 141635Z AUTO 19005KT 10SM CLR 28/17 A3023 RMK AO2 T02790171
KLKU 141615Z AUTO 26005KT 10SM CLR 27/18 A3023 RMK AO2 T02730175
KLKU 141555Z AUTO 20005KT 10SM CLR 27/18 A3023 RMK AO2 T02740180
KLKU 141535Z AUTO 24005KT 10SM CLR 27/18 A3024 RMK AO2 T02680178
KLKU 141515Z AUTO 24007KT 10SM CLR 26/18 A3024 RMK AO2 T02630177
KLKU 141455Z AUTO 20005KT 10SM CLR 26/18 A3023 RMK AO2 T02600180
KLKU 141435Z AUTO 24004KT 10SM CLR 26/18 A3023 RMK AO2 T02560182
KLKU 141415Z AUTO 24005KT 10SM CLR 25/18 A3023 RMK AO2 T02520176
KLKU 141355Z AUTO 18005KT 10SM CLR 24/17 A3023 RMK AO2 T02400174
KLKU 141335Z AUTO 21004KT 10SM CLR 24/18 A3024 RMK AO2 T02370178
KLKU 141315Z AUTO 21004KT 10SM CLR 23/17 A3024 RMK AO2 T02320173
KLKU 141255Z AUTO 24004KT 10SM CLR 22/17 A3024 RMK AO2 T02230165
KLKU 141235Z AUTO 21004KT 10SM CLR 22/17 A3024 RMK AO2 T02190167
KLKU 141215Z AUTO 21003KT 10SM CLR 21/17 A3024 RMK AO2 T02120170
KLKU 141155Z AUTO 20003KT 10SM CLR 20/17 A3024 RMK AO2 T02020171 10203 20125
KLKU 141135Z AUTO 21003KT 10SM CLR 18/17 A3024 RMK AO2 T01840172